Time;durP1;ratioP1;P1;durP2;ratioP2;P2;SDS_P1;SDS_P2;PMS_P1;PMS_P2;Temp;Humidity;BMP_temperature;BMP_pressure;BME280_temperature;BME280_humidity;BME280_pressure;Samples;Min_cycle;Max_cycle;Signal;HPM_P1;HPM_P2
2021/10/28 00:13:36;;;;;;;;;;;12.50;99.90;;;;;;1796485;79;20142;-73
2021/10/28 00:16:14;;;;;;;;;;;12.50;99.90;;;;;;1909717;74;20200;-73
2021/10/28 00:18:43;;;;;;;;;;;12.50;99.90;;;;;;1909293;75;20496;-73
2021/10/28 00:21:10;;;;;;;;;;;12.60;99.90;;;;;;1909078;75;20181;-73
2021/10/28 00:23:45;;;;;;;;;;;12.60;99.90;;;;;;1876118;75;20101;-73
2021/10/28 00:26:09;;;;;;;;;;;12.50;99.90;;;;;;1870012;76;20475;-73
2021/10/28 00:28:36;;;;;;;;;;;12.50;99.90;;;;;;1870363;76;20176;-73
2021/10/28 00:31:05;;;;;;;;;;;12.50;99.90;;;;;;1870338;77;20125;-73
2021/10/28 00:33:33;;;;;;;;;;;12.50;99.90;;;;;;1869465;76;20156;-73
2021/10/28 00:36:00;;;;;;;;;;;12.50;99.90;;;;;;1870230;77;20121;-72
2021/10/28 00:38:28;;;;;;;;;;;12.40;99.90;;;;;;1870483;77;20331;-73
2021/10/28 00:40:55;;;;;;;;;;;12.40;99.90;;;;;;1870402;76;20188;-73
2021/10/28 00:43:22;;;;;;;;;;;12.40;99.90;;;;;;1870531;76;20210;-73
2021/10/28 00:45:50;;;;;;;;;;;12.40;99.90;;;;;;1870233;77;20168;-73
2021/10/28 00:48:17;;;;;;;;;;;12.40;99.90;;;;;;1870528;77;20164;-73
2021/10/28 00:50:43;;;;;;;;;;;12.40;99.90;;;;;;1870425;76;20155;-73
2021/10/28 00:53:10;;;;;;;;;;;12.40;99.90;;;;;;1870423;77;20651;-72
2021/10/28 00:55:37;;;;;;;;;;;12.30;99.90;;;;;;1870317;76;20179;-73
2021/10/28 00:58:04;;;;;;;;;;;12.40;99.90;;;;;;1870377;77;20125;-73
2021/10/28 01:00:31;;;;;;;;;;;12.30;99.90;;;;;;1879868;75;20173;-72
2021/10/28 01:02:57;;;;;;;;;;;12.30;99.90;;;;;;1907787;75;20162;-73
2021/10/28 01:05:24;;;;;;;;;;;12.40;99.90;;;;;;1907848;75;20115;-72
2021/10/28 01:07:51;;;;;;;;;;;12.30;99.90;;;;;;1907927;75;20231;-72
2021/10/28 01:10:18;;;;;;;;;;;12.30;99.90;;;;;;1907933;75;20153;-73
2021/10/28 01:12:45;;;;;;;;;;;12.20;99.90;;;;;;1908113;75;20173;-73
2021/10/28 01:15:13;;;;;;;;;;;12.30;99.90;;;;;;1907770;75;20447;-73
2021/10/28 01:17:41;;;;;;;;;;;12.30;99.90;;;;;;1907786;74;20192;-73
2021/10/28 01:20:11;;;;;;;;;;;12.20;99.90;;;;;;1907857;75;20204;-73
2021/10/28 01:22:40;;;;;;;;;;;12.20;99.90;;;;;;1907920;75;20169;-73
2021/10/28 01:25:07;;;;;;;;;;;12.20;99.90;;;;;;1906666;75;20122;-73
2021/10/28 01:27:34;;;;;;;;;;;12.10;99.90;;;;;;1907717;75;20169;-73
2021/10/28 01:30:01;;;;;;;;;;;12.10;99.90;;;;;;1907921;75;20439;-73
2021/10/28 01:32:29;;;;;;;;;;;12.10;99.90;;;;;;1907698;75;20177;-73
2021/10/28 01:34:56;;;;;;;;;;;12.10;99.90;;;;;;1907670;75;20486;-73
2021/10/28 01:37:22;;;;;;;;;;;12.10;99.90;;;;;;1907613;75;20153;-73
2021/10/28 01:39:49;;;;;;;;;;;12.10;99.90;;;;;;1907915;75;20476;-73
2021/10/28 01:42:16;;;;;;;;;;;12.00;99.90;;;;;;1907797;75;20467;-73
2021/10/28 01:44:43;;;;;;;;;;;12.00;99.90;;;;;;1908332;75;20122;-73
2021/10/28 01:47:11;;;;;;;;;;;12.00;99.90;;;;;;1909880;75;20286;-73
2021/10/28 01:49:38;;;;;;;;;;;12.00;99.90;;;;;;1909871;75;20207;-73
2021/10/28 01:52:05;;;;;;;;;;;11.90;99.90;;;;;;1910060;75;20153;-73
2021/10/28 01:54:32;;;;;;;;;;;11.90;99.90;;;;;;1910043;74;20166;-74
2021/10/28 01:56:59;;;;;;;;;;;12.00;99.90;;;;;;1909928;75;20460;-73
2021/10/28 01:59:26;;;;;;;;;;;11.90;99.90;;;;;;1910041;75;20474;-73
2021/10/28 02:01:53;;;;;;;;;;;11.90;99.90;;;;;;1910040;75;20169;-73
2021/10/28 02:04:20;;;;;;;;;;;11.80;99.90;;;;;;1909937;74;20197;-73
2021/10/28 02:06:47;;;;;;;;;;;11.80;99.90;;;;;;1909848;75;20412;-73
2021/10/28 02:09:14;;;;;;;;;;;11.80;99.90;;;;;;1910009;75;20111;-73
2021/10/28 02:11:40;;;;;;;;;;;11.80;99.90;;;;;;1909977;75;20433;-73
2021/10/28 02:14:07;;;;;;;;;;;11.80;99.90;;;;;;1909908;74;20407;-73
2021/10/28 02:16:35;;;;;;;;;;;11.80;99.90;;;;;;1909596;75;20173;-72
2021/10/28 02:19:03;;;;;;;;;;;11.80;99.90;;;;;;1902128;75;20152;-73
2021/10/28 02:21:30;;;;;;;;;;;11.80;99.90;;;;;;1907758;75;20111;-73
2021/10/28 02:23:57;;;;;;;;;;;11.90;99.90;;;;;;1907797;74;20185;-73
2021/10/28 02:26:25;;;;;;;;;;;11.90;99.90;;;;;;1907632;75;20122;-73
2021/10/28 02:28:53;;;;;;;;;;;11.80;99.90;;;;;;1907880;75;20110;-72
2021/10/28 02:31:20;;;;;;;;;;;11.90;99.90;;;;;;1907782;75;20467;-73
2021/10/28 02:33:47;;;;;;;;;;;11.80;99.90;;;;;;1907785;74;20495;-73
2021/10/28 02:36:13;;;;;;;;;;;11.80;99.90;;;;;;1907612;75;20200;-73
2021/10/28 02:38:42;;;;;;;;;;;11.80;99.90;;;;;;1907913;75;20154;-73
2021/10/28 02:41:08;;;;;;;;;;;11.70;99.90;;;;;;1907701;75;20161;-72
2021/10/28 02:43:35;;;;;;;;;;;11.70;99.90;;;;;;1907662;74;20162;-73
2021/10/28 02:46:02;;;;;;;;;;;11.80;99.90;;;;;;1907777;75;20115;-73
2021/10/28 02:48:29;;;;;;;;;;;11.70;99.90;;;;;;1907669;75;20455;-73
2021/10/28 02:50:56;;;;;;;;;;;11.70;99.90;;;;;;1907801;75;20162;-73
2021/10/28 02:53:23;;;;;;;;;;;11.70;99.90;;;;;;1907499;74;20479;-73
2021/10/28 02:55:49;;;;;;;;;;;11.70;99.90;;;;;;1894860;75;20205;-73
2021/10/28 02:58:18;;;;;;;;;;;11.70;99.90;;;;;;1887254;76;20124;-73
2021/10/28 03:00:45;;;;;;;;;;;11.80;99.90;;;;;;1887193;76;20128;-73
2021/10/28 03:03:11;;;;;;;;;;;11.70;99.90;;;;;;1887098;76;20179;-73
2021/10/28 03:05:38;;;;;;;;;;;11.80;99.90;;;;;;1886899;76;20167;-73
2021/10/28 03:08:05;;;;;;;;;;;11.80;99.90;;;;;;1887205;76;20151;-73
2021/10/28 03:10:32;;;;;;;;;;;11.60;99.90;;;;;;1887148;76;20168;-74
2021/10/28 03:13:01;;;;;;;;;;;11.60;99.90;;;;;;1887245;76;20112;-74
2021/10/28 03:15:34;;;;;;;;;;;11.60;99.90;;;;;;1887112;76;20465;-74
2021/10/28 03:18:15;;;;;;;;;;;11.70;99.90;;;;;;1887265;76;20193;-74
2021/10/28 03:25:56;;;;;;;;;;;11.60;99.90;;;;;;1857566;77;20225;-73
2021/10/28 03:28:23;;;;;;;;;;;11.60;99.90;;;;;;1870924;76;20202;-73
2021/10/28 03:30:50;;;;;;;;;;;11.60;99.90;;;;;;1887281;76;20175;-73
2021/10/28 03:33:20;;;;;;;;;;;11.60;99.90;;;;;;1887143;75;20113;-73
2021/10/28 03:35:47;;;;;;;;;;;11.50;99.90;;;;;;1886989;76;20440;-73
2021/10/28 03:38:28;;;;;;;;;;;11.60;99.90;;;;;;1887150;76;20128;-73
2021/10/28 04:01:52;;;;;;;;;;;11.50;99.90;;;;;;1909689;74;20476;-73
2021/10/28 04:04:22;;;;;;;;;;;11.40;99.90;;;;;;1905969;75;20150;-73
2021/10/28 04:06:45;;;;;;;;;;;11.40;99.90;;;;;;1905870;75;20170;-74
2021/10/28 04:19:41;;;;;;;;;;;11.40;99.90;;;;;;1872230;75;20179;-73
2021/10/28 04:30:15;;;;;;;;;;;11.30;99.90;;;;;;1853278;77;20414;-73
2021/10/28 04:32:42;;;;;;;;;;;11.30;99.90;;;;;;1853185;77;20211;-73
2021/10/28 04:35:09;;;;;;;;;;;11.30;99.90;;;;;;1853420;76;20199;-73
2021/10/28 04:37:40;;;;;;;;;;;11.30;99.90;;;;;;1853414;77;20164;-73
2021/10/28 04:40:07;;;;;;;;;;;11.30;99.90;;;;;;1853484;77;20155;-73
2021/10/28 04:42:35;;;;;;;;;;;11.20;99.90;;;;;;1853407;76;20194;-73
2021/10/28 04:45:02;;;;;;;;;;;11.30;99.90;;;;;;1853124;76;20223;-72
2021/10/28 04:47:29;;;;;;;;;;;11.20;99.90;;;;;;1853177;77;20168;-71
2021/10/28 04:49:56;;;;;;;;;;;11.20;99.90;;;;;;1853507;77;20175;-72
2021/10/28 04:52:25;;;;;;;;;;;11.20;99.90;;;;;;1853195;76;20129;-72
2021/10/28 04:54:51;;;;;;;;;;;11.30;99.90;;;;;;1852923;76;20119;-73
2021/10/28 04:57:18;;;;;;;;;;;11.20;99.90;;;;;;1851747;77;20170;-73
2021/10/28 04:59:45;;;;;;;;;;;11.20;99.90;;;;;;1851693;77;20166;-73
2021/10/28 05:02:12;;;;;;;;;;;11.20;99.90;;;;;;1851975;77;20135;-73
2021/10/28 05:04:39;;;;;;;;;;;11.20;99.90;;;;;;1851875;76;20189;-72
2021/10/28 05:07:05;;;;;;;;;;;11.20;99.90;;;;;;1851652;77;20158;-73
2021/10/28 05:09:33;;;;;;;;;;;11.20;99.90;;;;;;1851731;77;20193;-73
2021/10/28 05:12:00;;;;;;;;;;;11.10;99.90;;;;;;1852014;77;20126;-73
2021/10/28 05:14:27;;;;;;;;;;;11.10;99.90;;;;;;1851663;76;20166;-73
2021/10/28 05:16:58;;;;;;;;;;;11.20;99.90;;;;;;1851858;77;20150;-72
2021/10/28 05:19:25;;;;;;;;;;;11.20;99.90;;;;;;1851766;77;20166;-73
2021/10/28 05:21:52;;;;;;;;;;;11.20;99.90;;;;;;1851787;77;20460;-73
2021/10/28 05:24:19;;;;;;;;;;;11.20;99.90;;;;;;1851781;76;20170;-73
2021/10/28 05:26:46;;;;;;;;;;;11.20;99.90;;;;;;1851653;77;20122;-73
2021/10/28 05:29:13;;;;;;;;;;;11.10;99.90;;;;;;1851933;77;20174;-73
2021/10/28 05:31:40;;;;;;;;;;;11.20;99.90;;;;;;1851848;77;20165;-72
2021/10/28 05:34:06;;;;;;;;;;;11.20;99.90;;;;;;1851754;76;20416;-73
2021/10/28 05:36:33;;;;;;;;;;;11.00;99.90;;;;;;1851714;77;20170;-73
2021/10/28 05:39:00;;;;;;;;;;;11.10;99.90;;;;;;1851811;77;20416;-73
2021/10/28 05:41:28;;;;;;;;;;;11.10;99.90;;;;;;1851724;77;20154;-73
2021/10/28 05:43:54;;;;;;;;;;;11.10;99.90;;;;;;1851827;76;20143;-73
2021/10/28 05:46:21;;;;;;;;;;;11.10;99.90;;;;;;1848008;77;20160;-73
2021/10/28 05:48:48;;;;;;;;;;;11.10;99.90;;;;;;1853320;76;20206;-72
2021/10/28 05:51:16;;;;;;;;;;;11.20;99.90;;;;;;1853332;76;20124;-72
2021/10/28 05:53:44;;;;;;;;;;;11.10;99.90;;;;;;1853331;77;20383;-72
2021/10/28 05:56:10;;;;;;;;;;;11.10;99.90;;;;;;1853338;77;20161;-73
2021/10/28 05:58:37;;;;;;;;;;;11.10;99.90;;;;;;1853298;77;20176;-73
2021/10/28 06:01:04;;;;;;;;;;;11.10;99.90;;;;;;1853311;77;20210;-72
2021/10/28 06:03:32;;;;;;;;;;;11.10;99.90;;;;;;1852098;76;20119;-73
2021/10/28 06:05:59;;;;;;;;;;;11.00;99.90;;;;;;1853193;76;20172;-73
2021/10/28 06:08:25;;;;;;;;;;;11.00;99.90;;;;;;1853297;76;20120;-73
2021/10/28 06:10:52;;;;;;;;;;;11.10;99.90;;;;;;1848591;76;20202;-73
2021/10/28 06:13:19;;;;;;;;;;;11.00;99.90;;;;;;1853334;77;20167;-73
2021/10/28 06:15:47;;;;;;;;;;;11.00;99.90;;;;;;1853124;77;20167;-73
2021/10/28 06:20:46;;;;;;;;;;;11.00;99.90;;;;;;1853222;76;20124;-73
2021/10/28 06:23:13;;;;;;;;;;;11.00;99.90;;;;;;1853395;77;20445;-73
2021/10/28 06:25:39;;;;;;;;;;;11.00;99.90;;;;;;1853020;77;20168;-73
2021/10/28 06:28:06;;;;;;;;;;;11.00;99.90;;;;;;1853172;77;20172;-73
2021/10/28 06:30:33;;;;;;;;;;;11.00;99.90;;;;;;1853109;76;20207;-73
2021/10/28 06:33:09;;;;;;;;;;;11.00;99.90;;;;;;1853468;77;20113;-72
2021/10/28 06:35:29;;;;;;;;;;;11.00;99.90;;;;;;1854414;75;20480;-72
2021/10/28 06:37:56;;;;;;;;;;;10.90;99.90;;;;;;1853404;77;20395;-73
2021/10/28 06:40:24;;;;;;;;;;;10.80;99.90;;;;;;1853507;77;20163;-71
2021/10/28 06:42:52;;;;;;;;;;;10.90;99.90;;;;;;1853328;77;20488;-72
2021/10/28 06:45:19;;;;;;;;;;;10.90;99.90;;;;;;1853166;77;20398;-72
2021/10/28 06:47:46;;;;;;;;;;;10.90;99.90;;;;;;1853373;76;20477;-71
2021/10/28 06:50:15;;;;;;;;;;;11.00;99.90;;;;;;1853387;76;20180;-72
2021/10/28 06:52:52;;;;;;;;;;;11.00;99.90;;;;;;1853351;75;20233;-72
2021/10/28 07:03:32;;;;;;;;;;;10.90;99.90;;;;;;1868757;75;20154;-73
2021/10/28 07:06:18;;;;;;;;;;;10.90;99.90;;;;;;1868747;77;20164;-72
2021/10/28 07:08:40;;;;;;;;;;;11.00;99.90;;;;;;1868487;75;20395;-72
2021/10/28 07:11:12;;;;;;;;;;;11.00;99.90;;;;;;1868911;75;20144;-73
2021/10/28 07:13:34;;;;;;;;;;;11.00;99.90;;;;;;1868101;75;20337;-72
2021/10/28 07:16:15;;;;;;;;;;;11.00;99.90;;;;;;1868661;75;20113;-73
2021/10/28 07:24:17;;;;;;;;;;;11.10;99.90;;;;;;1868793;75;20238;-73
2021/10/28 07:30:07;;;;;;;;;;;11.10;99.90;;;;;;1868878;77;20180;-73
2021/10/28 07:34:42;;;;;;;;;;;11.30;99.90;;;;;;1845067;76;20217;-72
2021/10/28 07:59:00;;;;;;;;;;;11.60;99.90;;;;;;1839444;76;20469;-72
2021/10/28 08:15:57;;;;;;;;;;;11.80;99.90;;;;;;1853122;77;20192;-72
2021/10/28 08:17:56;;;;;;;;;;;11.90;99.90;;;;;;1823973;77;20127;-71
2021/10/28 08:20:32;;;;;;;;;;;11.90;99.90;;;;;;1821425;78;20542;-72
2021/10/28 08:23:01;;;;;;;;;;;12.00;99.90;;;;;;1821665;78;20392;-72
2021/10/28 08:30:48;;;;;;;;;;;12.20;99.90;;;;;;1821207;79;20120;-72
2021/10/28 08:33:19;;;;;;;;;;;12.20;99.90;;;;;;1821282;79;20115;-72
2021/10/28 08:35:55;;;;;;;;;;;12.30;99.90;;;;;;1821083;77;20158;-72
2021/10/28 08:38:22;;;;;;;;;;;12.20;99.90;;;;;;1821165;78;20444;-72
2021/10/28 08:40:50;;;;;;;;;;;12.30;99.90;;;;;;1821164;79;20505;-72
2021/10/28 08:43:18;;;;;;;;;;;12.30;99.90;;;;;;1821195;78;20120;-72
2021/10/28 08:45:45;;;;;;;;;;;12.40;99.90;;;;;;1821000;79;20162;-72
2021/10/28 08:48:11;;;;;;;;;;;12.50;99.90;;;;;;1828999;76;20134;-72
2021/10/28 08:50:45;;;;;;;;;;;12.50;99.90;;;;;;1861060;75;20454;-72
2021/10/28 08:53:34;;;;;;;;;;;12.50;99.90;;;;;;1839248;78;20174;-72
2021/10/28 08:56:00;;;;;;;;;;;12.50;99.90;;;;;;1839582;77;20440;-72
2021/10/28 08:58:43;;;;;;;;;;;12.60;99.90;;;;;;1839364;76;20191;-72
2021/10/28 09:26:40;;;;;;;;;;;13.30;99.90;;;;;;1853151;77;20809;-73
2021/10/28 09:29:05;;;;;;;;;;;13.40;99.90;;;;;;1852295;77;20202;-73
2021/10/28 09:31:34;;;;;;;;;;;13.50;99.90;;;;;;1853213;77;20176;-73
2021/10/28 09:48:45;;;;;;;;;;;14.00;99.90;;;;;;1853250;77;20147;-73
2021/10/28 09:51:03;;;;;;;;;;;14.20;99.90;;;;;;1852094;76;20205;-73
2021/10/28 09:53:43;;;;;;;;;;;14.20;99.90;;;;;;1853447;76;20485;-73
2021/10/28 09:58:47;;;;;;;;;;;14.40;99.90;;;;;;1848324;77;20146;-73
2021/10/28 10:01:18;;;;;;;;;;;14.50;99.90;;;;;;1853409;77;20488;-73
2021/10/28 10:03:48;;;;;;;;;;;14.60;99.90;;;;;;1849483;77;20121;-72
2021/10/28 10:06:17;;;;;;;;;;;14.70;99.90;;;;;;1853412;75;20159;-73
2021/10/28 10:08:42;;;;;;;;;;;14.70;99.90;;;;;;1853905;75;20171;-73
2021/10/28 10:11:09;;;;;;;;;;;14.80;99.90;;;;;;1853410;76;20128;-73
2021/10/28 10:13:37;;;;;;;;;;;14.90;99.90;;;;;;1853333;77;20191;-72
2021/10/28 10:16:05;;;;;;;;;;;14.90;99.90;;;;;;1848364;76;20372;-72
2021/10/28 10:18:34;;;;;;;;;;;14.90;99.90;;;;;;1853444;77;20168;-72
2021/10/28 10:21:10;;;;;;;;;;;14.90;99.90;;;;;;1853266;77;20647;-73
2021/10/28 10:24:00;;;;;;;;;;;14.90;99.90;;;;;;1854433;75;20172;-72
2021/10/28 10:26:29;;;;;;;;;;;14.80;99.90;;;;;;1856652;75;20148;-72
2021/10/28 11:03:51;;;;;;;;;;;15.50;99.90;;;;;;1892322;74;20166;-73
2021/10/28 11:22:44;;;;;;;;;;;16.30;99.90;;;;;;1892939;75;20205;-72
2021/10/28 12:01:52;;;;;;;;;;;17.50;99.90;;;;;;1918835;72;20261;-72
2021/10/28 12:45:50;;;;;;;;;;;19.00;99.90;;;;;;1925932;74;20206;-72
2021/10/28 12:48:42;;;;;;;;;;;19.10;99.90;;;;;;1925253;73;20425;-72
2021/10/28 12:51:09;;;;;;;;;;;19.10;99.90;;;;;;1922182;74;20227;-72
2021/10/28 12:53:51;;;;;;;;;;;19.10;99.90;;;;;;1923473;74;20181;-72
2021/10/28 12:56:29;;;;;;;;;;;19.20;99.90;;;;;;1924202;74;20190;-72
2021/10/28 13:34:55;;;;;;;;;;;19.20;99.90;;;;;;1912156;74;20123;-73
2021/10/28 13:50:53;;;;;;;;;;;18.50;99.90;;;;;;1892641;76;20165;-72
2021/10/28 13:58:20;;;;;;;;;;;18.20;99.90;;;;;;1892667;74;20265;-72
2021/10/28 14:01:00;;;;;;;;;;;18.10;99.90;;;;;;1890962;76;20451;-71
2021/10/28 14:22:36;;;;;;;;;;;17.60;99.90;;;;;;1925883;74;20199;-71
2021/10/28 14:36:26;;;;;;;;;;;17.30;99.90;;;;;;1925796;73;20224;-72
2021/10/28 15:30:01;;;;;;;;;;;16.40;99.90;;;;;;1892753;76;20196;-72
2021/10/28 15:40:16;;;;;;;;;;;16.40;99.90;;;;;;1892690;75;20213;-72
2021/10/28 15:43:08;;;;;;;;;;;16.30;99.90;;;;;;1892817;75;20228;-72
2021/10/28 15:48:53;;;;;;;;;;;16.30;99.90;;;;;;1892594;76;20182;-72
2021/10/28 15:53:42;;;;;;;;;;;16.20;99.90;;;;;;1892714;74;20252;-72
2021/10/28 16:01:45;;;;;;;;;;;16.00;99.90;;;;;;1892781;76;20271;-72
2021/10/28 16:23:07;;;;;;;;;;;15.80;99.90;;;;;;1892784;76;20177;-71
2021/10/28 16:25:34;;;;;;;;;;;15.70;99.90;;;;;;1892795;75;20400;-71
2021/10/28 16:28:01;;;;;;;;;;;15.80;99.90;;;;;;1892955;75;20164;-71
2021/10/28 16:30:27;;;;;;;;;;;15.60;99.90;;;;;;1892863;76;20435;-71
2021/10/28 16:32:54;;;;;;;;;;;15.60;99.90;;;;;;1892898;76;20125;-71
2021/10/28 16:35:21;;;;;;;;;;;15.50;99.90;;;;;;1892748;75;20428;-71
2021/10/28 16:37:51;;;;;;;;;;;15.50;99.90;;;;;;1892943;76;20160;-71
2021/10/28 16:40:17;;;;;;;;;;;15.50;99.90;;;;;;1892794;76;20504;-72
2021/10/28 16:42:43;;;;;;;;;;;15.50;99.90;;;;;;1892929;76;20168;-71
2021/10/28 16:45:10;;;;;;;;;;;15.50;99.90;;;;;;1892618;75;20176;-71
2021/10/28 16:47:37;;;;;;;;;;;15.40;99.90;;;;;;1892856;75;20207;-72
2021/10/28 16:50:05;;;;;;;;;;;15.40;99.90;;;;;;1892768;75;20169;-71
2021/10/28 16:52:32;;;;;;;;;;;15.30;99.90;;;;;;1892947;75;20199;-71
2021/10/28 16:54:59;;;;;;;;;;;15.20;99.90;;;;;;1899017;72;20125;-71
2021/10/28 16:57:26;;;;;;;;;;;15.20;99.90;;;;;;1977970;72;20204;-71
2021/10/28 16:59:53;;;;;;;;;;;15.20;99.90;;;;;;1983215;72;20110;-71
2021/10/28 17:02:19;;;;;;;;;;;15.20;99.90;;;;;;1983136;72;20169;-71
2021/10/28 17:04:46;;;;;;;;;;;15.30;99.90;;;;;;1983169;72;20169;-71
2021/10/28 17:07:14;;;;;;;;;;;15.20;99.90;;;;;;1983046;72;20188;-71
2021/10/28 17:09:41;;;;;;;;;;;15.20;99.90;;;;;;1983217;72;20106;-72
2021/10/28 17:12:08;;;;;;;;;;;15.20;99.90;;;;;;1983102;72;20814;-71
2021/10/28 17:14:35;;;;;;;;;;;15.20;99.90;;;;;;1983106;72;20113;-71
2021/10/28 17:17:02;;;;;;;;;;;15.10;99.90;;;;;;1983169;72;20153;-71
2021/10/28 17:19:29;;;;;;;;;;;15.00;99.90;;;;;;1983088;72;20149;-71
2021/10/28 17:21:55;;;;;;;;;;;15.00;99.90;;;;;;1983323;72;20160;-71
2021/10/28 17:24:30;;;;;;;;;;;15.00;99.90;;;;;;1983131;72;20201;-71
2021/10/28 17:26:51;;;;;;;;;;;15.00;99.90;;;;;;1981796;72;20173;-71
2021/10/28 17:29:17;;;;;;;;;;;14.70;99.90;;;;;;1983164;72;20121;-71
2021/10/28 17:31:44;;;;;;;;;;;14.70;99.90;;;;;;1983244;72;20180;-71
2021/10/28 17:34:11;;;;;;;;;;;14.70;99.90;;;;;;1983164;72;20117;-71
2021/10/28 17:36:38;;;;;;;;;;;14.70;99.90;;;;;;1983082;72;20200;-71
2021/10/28 17:39:06;;;;;;;;;;;14.70;99.90;;;;;;1983186;72;20185;-71
2021/10/28 17:41:33;;;;;;;;;;;14.60;99.90;;;;;;1983203;72;20469;-71
2021/10/28 17:44:03;;;;;;;;;;;14.60;99.90;;;;;;1953952;72;20456;-71
2021/10/28 17:46:28;;;;;;;;;;;14.60;99.90;;;;;;1925792;73;20208;-71
2021/10/28 17:48:55;;;;;;;;;;;14.60;99.90;;;;;;1925828;74;20453;-71
2021/10/28 17:51:22;;;;;;;;;;;14.50;99.90;;;;;;1925850;74;20119;-71
2021/10/28 17:53:50;;;;;;;;;;;14.50;99.90;;;;;;1926074;74;20147;-71
2021/10/28 17:56:17;;;;;;;;;;;14.50;99.90;;;;;;1925941;74;20170;-71
2021/10/28 17:58:44;;;;;;;;;;;14.50;99.90;;;;;;1925807;73;20116;-71
2021/10/28 18:01:14;;;;;;;;;;;14.40;99.90;;;;;;1926020;74;20495;-71
2021/10/28 18:03:39;;;;;;;;;;;14.40;99.90;;;;;;1925755;74;20187;-71
2021/10/28 18:06:06;;;;;;;;;;;14.40;99.90;;;;;;1925836;73;20112;-72
2021/10/28 18:08:34;;;;;;;;;;;14.40;99.90;;;;;;1925932;74;20190;-72
2021/10/28 18:11:01;;;;;;;;;;;14.40;99.90;;;;;;1921026;74;20202;-72
2021/10/28 18:13:28;;;;;;;;;;;14.40;99.90;;;;;;1925944;74;20186;-72
2021/10/28 18:15:54;;;;;;;;;;;14.40;99.90;;;;;;1920552;72;20122;-72
2021/10/28 18:18:21;;;;;;;;;;;14.40;99.90;;;;;;1924019;75;20219;-72
2021/10/28 18:20:48;;;;;;;;;;;14.40;99.90;;;;;;1924120;75;20117;-72
2021/10/28 18:23:16;;;;;;;;;;;14.40;99.90;;;;;;1924108;75;20169;-72
2021/10/28 18:25:43;;;;;;;;;;;14.40;99.90;;;;;;1923986;75;20121;-72
2021/10/28 18:28:10;;;;;;;;;;;14.40;99.90;;;;;;1924035;75;20169;-72
2021/10/28 18:30:37;;;;;;;;;;;14.40;99.90;;;;;;1924123;75;20446;-72
2021/10/28 18:33:04;;;;;;;;;;;14.40;99.90;;;;;;1924020;75;20157;-72
2021/10/28 18:35:31;;;;;;;;;;;14.40;99.90;;;;;;1923932;75;20122;-72
2021/10/28 18:37:58;;;;;;;;;;;14.40;99.90;;;;;;1924006;75;20497;-72
2021/10/28 18:40:25;;;;;;;;;;;14.40;99.90;;;;;;1923980;75;20175;-72
2021/10/28 18:42:51;;;;;;;;;;;14.30;99.90;;;;;;1923712;75;20214;-72
2021/10/28 18:45:18;;;;;;;;;;;14.40;99.90;;;;;;1923733;75;20180;-72
2021/10/28 18:47:45;;;;;;;;;;;14.30;99.90;;;;;;1923996;75;20121;-72
2021/10/28 18:50:12;;;;;;;;;;;14.30;99.90;;;;;;1923904;75;20184;-72
2021/10/28 18:52:40;;;;;;;;;;;14.40;99.90;;;;;;1923972;75;20431;-72
2021/10/28 18:55:07;;;;;;;;;;;14.30;99.90;;;;;;1923897;75;20152;-72
2021/10/28 18:57:34;;;;;;;;;;;14.40;99.90;;;;;;1954889;72;20172;-72
2021/10/28 19:00:01;;;;;;;;;;;14.40;99.90;;;;;;1983097;72;20484;-72
2021/10/28 19:02:30;;;;;;;;;;;14.30;99.90;;;;;;1983167;72;20147;-72
2021/10/28 19:04:56;;;;;;;;;;;14.30;99.90;;;;;;1982756;72;20454;-72
2021/10/28 19:07:23;;;;;;;;;;;14.30;99.90;;;;;;1983302;72;20125;-72
2021/10/28 19:09:50;;;;;;;;;;;14.30;99.90;;;;;;1983150;72;20187;-72
2021/10/28 19:12:17;;;;;;;;;;;14.30;99.90;;;;;;1982974;72;20462;-72
2021/10/28 19:14:44;;;;;;;;;;;14.20;99.90;;;;;;1983270;72;20113;-72
2021/10/28 19:17:11;;;;;;;;;;;14.20;99.90;;;;;;1982899;72;20153;-72
2021/10/28 19:19:38;;;;;;;;;;;14.20;99.90;;;;;;1983224;72;20122;-72
2021/10/28 19:22:05;;;;;;;;;;;14.20;99.90;;;;;;1983205;72;20172;-72
2021/10/28 19:24:32;;;;;;;;;;;14.20;99.90;;;;;;1983056;72;20099;-72
2021/10/28 19:26:59;;;;;;;;;;;14.20;99.90;;;;;;1969604;72;20171;-72
2021/10/28 19:29:27;;;;;;;;;;;14.00;99.90;;;;;;1929238;74;20125;-72
2021/10/28 19:31:58;;;;;;;;;;;14.00;99.90;;;;;;1924696;74;20195;-74
2021/10/28 19:34:23;;;;;;;;;;;14.00;99.90;;;;;;1892914;75;20452;-74
2021/10/28 19:39:32;;;;;;;;;;;14.00;99.90;;;;;;1884592;76;20132;-74
2021/10/28 19:42:07;;;;;;;;;;;13.90;99.90;;;;;;1859864;77;20204;-74
2021/10/28 19:47:13;;;;;;;;;;;14.00;99.90;;;;;;1872824;77;20309;-74
2021/10/28 19:49:38;;;;;;;;;;;13.90;99.90;;;;;;1872794;76;20149;-73
2021/10/28 19:52:07;;;;;;;;;;;13.90;99.90;;;;;;1872849;77;20880;-73
2021/10/28 19:54:35;;;;;;;;;;;13.90;99.90;;;;;;1872822;77;20180;-73
2021/10/28 19:57:02;;;;;;;;;;;13.90;99.90;;;;;;1872683;77;20192;-73
2021/10/28 19:59:34;;;;;;;;;;;13.90;99.90;;;;;;1872964;77;20196;-74
2021/10/28 20:02:06;;;;;;;;;;;13.90;99.90;;;;;;1872645;76;20287;-74
2021/10/28 20:07:14;;;;;;;;;;;13.90;99.90;;;;;;1842746;78;20556;-74
2021/10/28 20:20:36;;;;;;;;;;;13.80;99.90;;;;;;1928869;74;20118;-74
2021/10/28 20:23:03;;;;;;;;;;;13.60;99.90;;;;;;1928880;74;20134;-74
2021/10/28 20:25:30;;;;;;;;;;;13.70;99.90;;;;;;1928746;73;20458;-74
2021/10/28 20:28:02;;;;;;;;;;;13.60;99.90;;;;;;1928832;74;20388;-74
2021/10/28 20:30:30;;;;;;;;;;;13.60;99.90;;;;;;1928709;74;20149;-74
2021/10/28 20:32:55;;;;;;;;;;;13.50;99.90;;;;;;1928723;74;20154;-74
2021/10/28 20:37:53;;;;;;;;;;;13.50;99.90;;;;;;1928721;74;20148;-74
2021/10/28 20:40:20;;;;;;;;;;;13.50;99.90;;;;;;1928943;74;20161;-74
2021/10/28 20:42:48;;;;;;;;;;;13.50;99.90;;;;;;1928700;74;20144;-73
2021/10/28 20:45:16;;;;;;;;;;;13.40;99.90;;;;;;1928798;74;20187;-73
2021/10/28 20:47:44;;;;;;;;;;;13.40;99.90;;;;;;1928693;74;20165;-73
2021/10/28 20:50:12;;;;;;;;;;;13.40;99.90;;;;;;1929038;74;20169;-73
2021/10/28 20:52:40;;;;;;;;;;;13.30;99.90;;;;;;1928675;73;20177;-74
2021/10/28 20:55:07;;;;;;;;;;;13.30;99.90;;;;;;1928539;74;20180;-74
2021/10/28 20:57:38;;;;;;;;;;;13.40;99.90;;;;;;1929980;73;20391;-74
2021/10/28 21:00:07;;;;;;;;;;;13.30;99.90;;;;;;1963082;73;20183;-74
2021/10/28 21:02:35;;;;;;;;;;;13.30;99.90;;;;;;1963242;72;20814;-73
2021/10/28 21:05:03;;;;;;;;;;;13.20;99.90;;;;;;1962860;73;20628;-74
2021/10/28 21:07:30;;;;;;;;;;;13.20;99.90;;;;;;1963202;73;20146;-74
2021/10/28 21:09:57;;;;;;;;;;;13.10;99.90;;;;;;1963153;73;20182;-74
2021/10/28 21:12:24;;;;;;;;;;;13.20;99.90;;;;;;1963313;72;20154;-74
2021/10/28 21:14:51;;;;;;;;;;;13.30;99.90;;;;;;1963043;73;20217;-74
2021/10/28 21:17:18;;;;;;;;;;;13.10;99.90;;;;;;1963204;73;20143;-73
2021/10/28 21:19:45;;;;;;;;;;;13.10;99.90;;;;;;1963286;73;20197;-73
2021/10/28 21:22:15;;;;;;;;;;;13.20;99.90;;;;;;1963164;72;20163;-73
2021/10/28 21:24:44;;;;;;;;;;;13.20;99.90;;;;;;1962989;73;20216;-74
2021/10/28 21:27:10;;;;;;;;;;;13.20;99.90;;;;;;1962851;73;20452;-74
2021/10/28 21:29:37;;;;;;;;;;;13.00;99.90;;;;;;1963241;73;20455;-74
2021/10/28 21:32:04;;;;;;;;;;;12.90;99.90;;;;;;1963188;72;20171;-74
2021/10/28 21:34:31;;;;;;;;;;;13.00;99.90;;;;;;1963311;73;20138;-74
2021/10/28 21:36:57;;;;;;;;;;;12.90;99.90;;;;;;1963277;73;20226;-72
2021/10/28 21:39:24;;;;;;;;;;;12.80;99.90;;;;;;1924250;73;20120;-73
2021/10/28 21:41:51;;;;;;;;;;;12.90;99.90;;;;;;1895817;76;20123;-73
2021/10/28 21:44:18;;;;;;;;;;;12.90;99.90;;;;;;1895966;76;20199;-73
2021/10/28 21:46:45;;;;;;;;;;;12.80;99.90;;;;;;1895772;76;20109;-72
2021/10/28 21:49:12;;;;;;;;;;;12.70;99.90;;;;;;1895991;76;20199;-73
2021/10/28 21:51:39;;;;;;;;;;;12.70;99.90;;;;;;1895864;76;20127;-73
2021/10/28 21:54:17;;;;;;;;;;;12.70;99.90;;;;;;1895915;76;20178;-73
2021/10/28 21:56:40;;;;;;;;;;;12.70;99.90;;;;;;1895975;75;20278;-73
2021/10/28 21:59:25;;;;;;;;;;;12.60;99.90;;;;;;1895711;74;20199;-72
2021/10/28 22:02:15;;;;;;;;;;;12.40;99.90;;;;;;1896239;75;20166;-71
2021/10/28 22:04:34;;;;;;;;;;;12.50;99.90;;;;;;1890576;75;20167;-73
2021/10/28 22:24:11;;;;;;;;;;;12.40;99.90;;;;;;1940950;72;20193;-72
2021/10/28 22:25:48;;;;;;;;;;;12.30;99.90;;;;;;1895622;75;20137;-72
2021/10/28 22:28:15;;;;;;;;;;;12.30;99.90;;;;;;1895796;76;20109;-73
2021/10/28 22:30:42;;;;;;;;;;;12.30;99.90;;;;;;1895947;76;20180;-72
2021/10/28 22:33:09;;;;;;;;;;;12.30;99.90;;;;;;1895875;76;20449;-73
2021/10/28 22:38:07;;;;;;;;;;;12.30;99.90;;;;;;1895894;76;20159;-72
2021/10/28 22:40:40;;;;;;;;;;;12.20;99.90;;;;;;1895991;76;20162;-72
2021/10/28 22:43:07;;;;;;;;;;;12.20;99.90;;;;;;1895662;74;20184;-73
2021/10/28 22:45:35;;;;;;;;;;;12.20;99.90;;;;;;1895859;76;20108;-73
2021/10/28 22:48:02;;;;;;;;;;;12.30;99.90;;;;;;1895706;76;20224;-72